createdAt,value
2019-03-13T00:00:55.414Z,-2.59
2019-03-13T00:03:28.664Z,-2.50
2019-03-13T00:06:03.800Z,-2.50
2019-03-13T00:08:37.836Z,-1.94
2019-03-13T00:11:11.752Z,-1.97
2019-03-13T00:13:45.081Z,-1.77
2019-03-13T00:16:19.940Z,-1.74
2019-03-13T00:18:53.433Z,-2.00
2019-03-13T00:21:28.762Z,-1.78
2019-03-13T00:24:02.050Z,-1.36
2019-03-13T00:26:35.509Z,-0.93
2019-03-13T00:29:08.999Z,-0.38
2019-03-13T00:31:42.422Z,-0.62
2019-03-13T00:34:15.773Z,-1.06
2019-03-13T00:36:49.181Z,-1.03
2019-03-13T00:39:23.889Z,-1.01
2019-03-13T00:41:57.272Z,-0.95
2019-03-13T00:44:30.551Z,-0.79
2019-03-13T00:47:05.222Z,0.21
2019-03-13T00:49:38.627Z,-0.46
2019-03-13T00:52:13.144Z,-0.46
2019-03-13T00:54:48.490Z,-0.59
2019-03-13T00:57:21.760Z,-0.32
2019-03-13T00:59:55.036Z,-0.62
2019-03-13T01:02:28.303Z,-0.32
2019-03-13T01:05:01.925Z,-0.08
2019-03-13T01:07:35.442Z,-0.13
2019-03-13T01:10:11.059Z,-0.12
2019-03-13T01:12:44.426Z,-0.07
2019-03-13T01:15:18.326Z,0.09
2019-03-13T01:17:53.206Z,0.56
2019-03-13T01:20:26.447Z,0.25
2019-03-13T01:22:59.831Z,0.43
2019-03-13T01:25:33.352Z,0.24
2019-03-13T01:28:06.603Z,0.02
2019-03-13T01:30:40.254Z,-0.18
2019-03-13T01:33:16.945Z,-0.08
2019-03-13T01:35:50.244Z,-0.04
2019-03-13T01:38:25.404Z,-0.17
2019-03-13T01:40:58.660Z,-0.08
2019-03-13T01:43:32.089Z,-0.24
2019-03-13T01:46:05.530Z,0.21
2019-03-13T01:48:38.856Z,0.25
2019-03-13T01:51:12.189Z,0.33
2019-03-13T01:53:47.108Z,0.15
2019-03-13T01:56:21.697Z,0.25
2019-03-13T01:58:54.990Z,0.16
2019-03-13T02:01:29.902Z,-0.02
2019-03-13T02:04:03.333Z,0.00
2019-03-13T02:06:36.875Z,0.24
2019-03-13T02:09:16.288Z,0.02
2019-03-13T02:11:50.063Z,0.16
2019-03-13T02:14:23.348Z,0.31
2019-03-13T02:16:57.887Z,0.18
2019-03-13T02:19:32.635Z,0.43
2019-03-13T02:22:06.218Z,0.43
2019-03-13T02:24:40.059Z,0.44
2019-03-13T02:27:31.468Z,0.82
2019-03-13T02:30:06.626Z,0.75
2019-03-13T02:32:39.996Z,0.87
2019-03-13T02:35:13.560Z,0.81
2019-03-13T02:37:51.297Z,0.83
2019-03-13T02:40:24.722Z,0.78
2019-03-13T02:42:58.007Z,0.85
2019-03-13T02:45:31.583Z,1.07
2019-03-13T02:48:04.879Z,1.03
2019-03-13T02:50:38.269Z,1.06
2019-03-13T02:53:12.916Z,1.32
2019-03-13T02:55:50.330Z,1.56
2019-03-13T02:58:23.708Z,1.57
2019-03-13T03:00:57.802Z,1.23
2019-03-13T03:03:31.251Z,1.41
2019-03-13T03:06:05.864Z,1.37
2019-03-13T03:08:39.829Z,1.47
2019-03-13T03:11:13.579Z,1.34
2019-03-13T03:13:47.182Z,1.57
2019-03-13T03:16:20.897Z,1.67
2019-03-13T03:18:55.804Z,1.67
2019-03-13T03:21:29.727Z,1.64
2019-03-13T03:24:04.084Z,1.94
2019-03-13T03:26:41.195Z,1.81
2019-03-13T03:29:13.079Z,1.72
2019-03-13T03:31:46.835Z,1.61
2019-03-13T03:34:20.381Z,1.70
2019-03-13T03:36:53.859Z,2.41
2019-03-13T03:39:27.135Z,2.69
2019-03-13T03:42:00.361Z,3.04
2019-03-13T03:44:33.722Z,3.22
2019-03-13T03:47:07.060Z,3.09
2019-03-13T03:49:40.390Z,3.15
2019-03-13T03:52:14.334Z,2.84
2019-03-13T03:54:47.692Z,3.10
2019-03-13T03:57:21.181Z,3.38
2019-03-13T03:59:54.486Z,3.27
2019-03-13T04:02:27.834Z,3.41
2019-03-13T04:05:01.235Z,3.94
2019-03-13T04:07:34.705Z,3.35
2019-03-13T04:10:10.877Z,3.18
2019-03-13T04:12:44.616Z,3.22
2019-03-13T04:15:18.366Z,3.21
2019-03-13T04:17:51.553Z,3.20
2019-03-13T04:20:25.067Z,3.54
2019-03-13T04:22:59.229Z,3.35
2019-03-13T04:28:09.864Z,3.05
2019-03-13T04:30:47.004Z,3.33
2019-03-13T04:33:21.281Z,3.39
2019-03-13T04:35:54.563Z,3.35
2019-03-13T04:38:27.998Z,3.77
2019-03-13T04:41:01.282Z,3.86
2019-03-13T04:43:34.541Z,4.03
2019-03-13T04:46:07.984Z,3.61
2019-03-13T04:48:41.247Z,3.27
2019-03-13T04:51:14.810Z,3.04
2019-03-13T04:53:48.192Z,3.59
2019-03-13T04:56:21.413Z,3.53
2019-03-13T04:58:54.601Z,3.93
2019-03-13T05:01:27.898Z,4.20
2019-03-13T05:04:01.155Z,4.25
2019-03-13T05:06:34.758Z,4.61
2019-03-13T05:09:13.556Z,4.70
2019-03-13T05:11:46.891Z,4.68
2019-03-13T05:14:20.539Z,4.70
2019-03-13T05:16:55.235Z,5.04
2019-03-13T05:19:28.560Z,5.05
2019-03-13T05:22:01.908Z,5.22
2019-03-13T05:24:35.084Z,4.99
2019-03-13T05:27:08.373Z,4.91
2019-03-13T05:29:42.890Z,4.28
2019-03-13T05:38:04.073Z,4.46
2019-03-13T05:40:37.588Z,4.80
2019-03-13T05:43:10.784Z,5.04
2019-03-13T05:45:44.336Z,4.94
2019-03-13T05:48:17.881Z,4.68
2019-03-13T05:50:51.369Z,4.60
2019-03-13T05:53:25.303Z,4.50
2019-03-13T05:55:59.319Z,4.52
2019-03-13T05:58:33.953Z,4.88
2019-03-13T06:01:07.266Z,4.37
2019-03-13T06:03:41.172Z,4.16
2019-03-13T06:06:14.786Z,4.14
2019-03-13T06:08:48.721Z,4.37
2019-03-13T06:11:22.701Z,4.74
2019-03-13T06:13:58.699Z,4.79
2019-03-13T06:16:34.120Z,4.37
2019-03-13T06:19:09.770Z,4.37
2019-03-13T06:21:43.748Z,4.55
2019-03-13T06:24:17.322Z,4.67
2019-03-13T06:26:50.871Z,4.38
2019-03-13T06:29:24.338Z,4.40
2019-03-13T06:31:57.625Z,4.49
2019-03-13T06:34:33.595Z,4.67
2019-03-13T06:37:06.297Z,4.23
2019-03-13T06:39:40.028Z,4.21
2019-03-13T06:42:13.657Z,4.37
2019-03-13T06:44:49.261Z,4.32
2019-03-13T06:47:25.132Z,4.41
2019-03-13T06:49:57.860Z,4.64
2019-03-13T06:52:34.316Z,4.79
2019-03-13T06:55:08.022Z,4.54
2019-03-13T06:57:42.157Z,4.30
2019-03-13T07:00:24.129Z,4.69
2019-03-13T07:02:57.866Z,5.04
2019-03-13T07:05:35.331Z,4.75
2019-03-13T07:08:07.356Z,5.06
2019-03-13T07:10:40.638Z,4.69
2019-03-13T07:13:13.950Z,5.16
2019-03-13T07:15:47.326Z,5.00
2019-03-13T07:18:20.797Z,5.02
2019-03-13T07:20:56.021Z,4.94
2019-03-13T07:23:30.354Z,5.08
2019-03-13T07:26:04.272Z,5.07
2019-03-13T07:28:39.016Z,4.83
2019-03-13T07:31:12.279Z,4.89
2019-03-13T07:33:45.709Z,4.83
2019-03-13T07:36:19.382Z,4.75
2019-03-13T07:38:54.308Z,5.00
2019-03-13T07:41:29.091Z,5.02
2019-03-13T07:44:02.511Z,4.60
2019-03-13T07:46:36.285Z,4.78
2019-03-13T07:49:09.725Z,4.87
2019-03-13T07:51:43.339Z,5.04
2019-03-13T07:54:17.124Z,5.19
2019-03-13T07:56:53.193Z,4.95
2019-03-13T07:59:28.558Z,4.95
2019-03-13T08:02:02.469Z,5.12
2019-03-13T08:04:37.507Z,5.00
2019-03-13T08:07:11.034Z,4.88
2019-03-13T08:09:45.804Z,4.91
2019-03-13T08:12:20.534Z,5.15
2019-03-13T08:14:57.049Z,4.88
2019-03-13T08:17:31.985Z,4.92
2019-03-13T08:20:07.345Z,4.87
2019-03-13T08:22:41.751Z,4.69
2019-03-13T08:25:16.817Z,5.01
2019-03-13T08:27:52.915Z,4.94
2019-03-13T08:30:27.916Z,4.88
2019-03-13T08:33:02.917Z,4.88
2019-03-13T08:35:39.883Z,4.75
2019-03-13T08:38:16.537Z,4.53
2019-03-13T08:40:51.086Z,4.54
2019-03-13T08:43:24.814Z,4.54
2019-03-13T08:46:02.810Z,4.52
2019-03-13T08:48:38.296Z,4.51
2019-03-13T08:51:11.806Z,4.30
2019-03-13T08:53:46.708Z,4.23
2019-03-13T08:56:21.372Z,4.20
2019-03-13T08:58:55.536Z,4.07
2019-03-13T09:01:29.209Z,4.06
2019-03-13T09:04:02.840Z,3.93
2019-03-13T09:06:36.173Z,3.90
2019-03-13T09:09:11.117Z,3.88
2019-03-13T09:11:44.454Z,3.76
2019-03-13T09:14:18.439Z,3.75
2019-03-13T09:16:52.469Z,3.82
2019-03-13T09:19:25.768Z,3.58
2019-03-13T09:22:00.771Z,3.51
2019-03-13T09:24:34.138Z,3.66
2019-03-13T09:27:10.050Z,3.42
2019-03-13T09:29:43.886Z,3.21
2019-03-13T09:32:19.399Z,3.33
2019-03-13T09:34:55.295Z,3.15
2019-03-13T09:37:29.821Z,3.18
2019-03-13T09:40:07.401Z,3.16
2019-03-13T09:42:42.475Z,3.14
2019-03-13T09:45:16.096Z,3.08
2019-03-13T09:47:49.370Z,2.92
2019-03-13T09:50:24.255Z,2.91
2019-03-13T09:52:57.624Z,2.88
2019-03-13T09:55:31.694Z,2.73
2019-03-13T09:58:05.370Z,2.76
2019-03-13T10:00:39.539Z,2.68
2019-03-13T10:03:17.164Z,2.68
2019-03-13T10:05:51.108Z,2.75
2019-03-13T10:08:24.759Z,2.70
2019-03-13T10:10:58.245Z,2.70
2019-03-13T10:13:31.657Z,2.58
2019-03-13T10:16:05.734Z,2.57
2019-03-13T10:18:39.138Z,2.53
2019-03-13T10:21:16.815Z,2.30
2019-03-13T10:23:49.460Z,2.35
2019-03-13T10:26:24.199Z,2.11
2019-03-13T10:28:58.937Z,2.10
2019-03-13T10:31:32.622Z,1.91
2019-03-13T10:34:06.249Z,1.82
2019-03-13T10:36:40.721Z,1.67
2019-03-13T10:39:14.930Z,1.69
2019-03-13T10:41:48.820Z,1.58
2019-03-13T10:44:22.813Z,1.34
2019-03-13T10:46:57.920Z,1.18
2019-03-13T10:49:35.548Z,1.28
2019-03-13T10:52:11.153Z,1.11
2019-03-13T10:54:44.844Z,0.97
2019-03-13T10:57:22.399Z,0.98
2019-03-13T10:59:56.937Z,0.88
2019-03-13T11:02:36.357Z,0.81
2019-03-13T11:05:10.214Z,0.92
2019-03-13T11:07:43.710Z,0.93
2019-03-13T11:10:17.279Z,1.06
2019-03-13T11:12:51.435Z,0.96
2019-03-13T11:15:26.390Z,0.91
2019-03-13T11:17:59.973Z,0.84
2019-03-13T11:20:34.048Z,0.63
2019-03-13T11:23:07.806Z,0.63
2019-03-13T11:25:44.532Z,0.40
2019-03-13T11:28:19.317Z,0.48
2019-03-13T11:30:55.411Z,0.40
2019-03-13T11:33:29.402Z,0.40
2019-03-13T11:36:04.186Z,0.41
2019-03-13T11:38:38.238Z,0.39
2019-03-13T11:41:13.875Z,0.27
2019-03-13T11:43:49.612Z,0.38
2019-03-13T11:46:25.792Z,0.27
2019-03-13T11:48:59.896Z,0.11
2019-03-13T11:51:34.627Z,0.10
2019-03-13T11:54:09.232Z,0.12
2019-03-13T11:56:44.191Z,0.13
2019-03-13T11:59:21.413Z,0.08
2019-03-13T12:01:57.351Z,-0.06
2019-03-13T12:04:32.300Z,0.01
2019-03-13T12:07:07.610Z,0.05
2019-03-13T12:09:46.794Z,-0.12
2019-03-13T12:12:22.075Z,-0.10
2019-03-13T12:15:00.733Z,-0.24
2019-03-13T12:17:33.891Z,-0.40
2019-03-13T12:20:09.958Z,-0.41
2019-03-13T12:22:45.355Z,-0.50
2019-03-13T12:25:19.709Z,-0.63
2019-03-13T12:27:55.124Z,-0.47
2019-03-13T12:30:31.774Z,-0.52
2019-03-13T12:33:07.082Z,-0.57
2019-03-13T12:35:43.562Z,-0.60
2019-03-13T12:38:18.570Z,-0.63
2019-03-13T12:40:54.663Z,-0.63
2019-03-13T12:43:29.768Z,-0.72
2019-03-13T12:46:06.613Z,-0.69
2019-03-13T12:48:41.582Z,-0.61
2019-03-13T12:51:17.626Z,-0.64
2019-03-13T12:53:51.714Z,-0.72
2019-03-13T12:56:29.878Z,-0.76
2019-03-13T12:59:02.823Z,-0.84
2019-03-13T13:01:40.420Z,-0.71
2019-03-13T13:04:17.289Z,-0.75
2019-03-13T13:06:52.572Z,-0.84
2019-03-13T13:09:31.256Z,-0.91
2019-03-13T13:12:08.473Z,-0.82
2019-03-13T13:14:45.149Z,-0.72
2019-03-13T13:17:21.742Z,-0.96
2019-03-13T13:19:58.146Z,-1.08
2019-03-13T13:22:34.571Z,-1.20
2019-03-13T13:25:13.126Z,-1.23
2019-03-13T13:27:50.335Z,-1.24
2019-03-13T13:30:26.752Z,-1.34
2019-03-13T13:33:02.545Z,-1.24
2019-03-13T13:35:37.456Z,-1.24
2019-03-13T13:38:12.176Z,-1.31
2019-03-13T13:40:49.984Z,-1.39
2019-03-13T13:43:41.773Z,-1.35
2019-03-13T13:46:44.215Z,-1.49
2019-03-13T13:49:19.297Z,-1.44
2019-03-13T13:51:54.964Z,-1.52
2019-03-13T13:54:30.959Z,-1.71
2019-03-13T13:57:05.296Z,-1.69
2019-03-13T13:59:41.403Z,-1.61
2019-03-13T14:02:16.163Z,-1.62
2019-03-13T14:04:50.997Z,-1.80
2019-03-13T14:07:25.797Z,-1.83
2019-03-13T14:10:04.817Z,-1.90
2019-03-13T14:12:39.484Z,-1.96
2019-03-13T14:15:17.525Z,-1.98
2019-03-13T14:17:52.255Z,-2.01
2019-03-13T14:20:26.295Z,-1.94
2019-03-13T14:23:00.585Z,-1.99
2019-03-13T14:25:33.985Z,-1.99
2019-03-13T14:28:07.789Z,-1.97
2019-03-13T14:30:42.041Z,-2.00
2019-03-13T14:33:15.951Z,-2.22
2019-03-13T14:35:49.823Z,-2.29
2019-03-13T14:38:23.265Z,-2.31
2019-03-13T14:40:57.155Z,-2.44
2019-03-13T14:43:37.109Z,-2.35
2019-03-13T14:49:14.163Z,-2.44
2019-03-13T14:51:59.100Z,-2.47
2019-03-13T14:54:37.084Z,-2.29
2019-03-13T14:57:11.178Z,-2.30
2019-03-13T14:59:47.729Z,-2.27
2019-03-13T15:02:21.269Z,-2.25
2019-03-13T15:04:54.557Z,-2.10
2019-03-13T15:07:27.755Z,-2.21
2019-03-13T15:10:01.148Z,-2.24
2019-03-13T15:12:34.971Z,-2.13
2019-03-13T15:15:14.172Z,-2.15
2019-03-13T15:17:47.610Z,-2.44
2019-03-13T15:20:28.516Z,-2.44
2019-03-13T15:23:01.956Z,-2.55
2019-03-13T15:25:36.552Z,-2.33
2019-03-13T15:28:09.843Z,-2.37
2019-03-13T15:30:43.087Z,-2.43
2019-03-13T15:33:16.680Z,-2.56
2019-03-13T15:35:50.119Z,-2.66
2019-03-13T15:38:23.508Z,-2.54
2019-03-13T15:41:06.160Z,-2.67
2019-03-13T15:43:54.311Z,-2.77
2019-03-13T15:46:27.523Z,-2.73
2019-03-13T15:49:00.924Z,-2.74
2019-03-13T15:51:35.060Z,-2.65
2019-03-13T15:54:08.484Z,-2.71
2019-03-13T15:56:41.771Z,-2.74
2019-03-13T15:59:15.015Z,-2.72
2019-03-13T16:01:48.206Z,-2.73
2019-03-13T16:04:22.912Z,-2.75
2019-03-13T16:06:58.040Z,-2.76
2019-03-13T16:09:31.403Z,-2.71
2019-03-13T16:12:05.609Z,-2.75
2019-03-13T16:14:38.976Z,-2.87
2019-03-13T16:17:12.173Z,-3.02
2019-03-13T16:19:45.465Z,-2.90
2019-03-13T16:22:19.153Z,-2.86
2019-03-13T16:24:52.382Z,-2.89
2019-03-13T16:27:25.776Z,-2.84
2019-03-13T16:29:59.199Z,-2.87
2019-03-13T16:32:43.547Z,-2.89
2019-03-13T16:35:10.462Z,-2.96
2019-03-13T16:37:43.819Z,-2.94
2019-03-13T16:40:21.249Z,-3.05
2019-03-13T16:42:54.558Z,-3.09
2019-03-13T16:45:28.675Z,-3.03
2019-03-13T16:48:02.036Z,-2.95
2019-03-13T16:50:40.538Z,-3.05
2019-03-13T16:53:13.842Z,-3.25
2019-03-13T16:55:47.091Z,-3.23
2019-03-13T16:58:20.471Z,-3.24
2019-03-13T17:00:53.908Z,-3.08
2019-03-13T17:03:27.118Z,-3.24
2019-03-13T17:06:00.726Z,-3.22
2019-03-13T17:08:34.155Z,-3.14
2019-03-13T17:11:07.389Z,-3.24
2019-03-13T17:13:40.590Z,-3.40
2019-03-13T17:16:13.845Z,-3.45
2019-03-13T17:18:49.989Z,-3.44
2019-03-13T17:21:26.309Z,-3.35
2019-03-13T17:24:00.077Z,-3.37
2019-03-13T17:26:33.531Z,-3.47
2019-03-13T17:29:06.989Z,-3.49
2019-03-13T17:31:40.246Z,-3.44
2019-03-13T17:34:13.533Z,-3.49
2019-03-13T17:36:47.582Z,-3.53
2019-03-13T17:39:20.849Z,-3.60
2019-03-13T17:42:05.850Z,-3.56
2019-03-13T17:44:56.057Z,-3.61
2019-03-13T17:47:29.299Z,-3.60
2019-03-13T17:50:02.561Z,-3.63
2019-03-13T17:52:35.757Z,-3.77
2019-03-13T17:55:11.463Z,-3.62
2019-03-13T17:57:45.042Z,-3.59
2019-03-13T18:00:35.448Z,-3.53
2019-03-13T18:03:09.121Z,-3.57
2019-03-13T18:05:44.769Z,-3.57
2019-03-13T18:08:18.055Z,-3.68
2019-03-13T18:10:51.320Z,-3.72
2019-03-13T18:13:24.590Z,-3.66
2019-03-13T18:15:57.979Z,-3.96
2019-03-13T18:18:31.363Z,-3.80
2019-03-13T18:21:04.645Z,-3.81
2019-03-13T18:23:39.226Z,-3.82
2019-03-13T18:26:12.495Z,-3.54
2019-03-13T18:28:46.205Z,-3.53
2019-03-13T18:31:22.463Z,-3.52
2019-03-13T18:33:55.723Z,-3.63
2019-03-13T18:36:29.142Z,-3.65
2019-03-13T18:39:02.294Z,-3.51
2019-03-13T18:41:35.603Z,-3.48
2019-03-13T18:44:09.746Z,-3.50
2019-03-13T18:46:42.927Z,-3.41
2019-03-13T18:51:52.983Z,-3.42
2019-03-13T18:54:26.252Z,-3.45
2019-03-13T18:56:59.716Z,-3.50
2019-03-13T18:59:33.142Z,-3.69
2019-03-13T19:02:06.493Z,-3.75
2019-03-13T19:04:41.964Z,-3.72
2019-03-13T19:07:15.438Z,-3.74
2019-03-13T19:09:48.734Z,-3.65
2019-03-13T19:12:23.603Z,-3.60
2019-03-13T19:14:56.856Z,-3.49
2019-03-13T19:17:30.050Z,-3.52
2019-03-13T19:20:05.115Z,-3.40
2019-03-13T19:22:38.560Z,-3.39
2019-03-13T19:25:13.588Z,-3.38
2019-03-13T19:27:46.981Z,-3.45
2019-03-13T19:30:28.451Z,-3.36
2019-03-13T19:33:02.872Z,-3.31
2019-03-13T19:35:36.196Z,-3.18
2019-03-13T19:38:15.574Z,-3.06
2019-03-13T19:40:48.994Z,-2.83
2019-03-13T19:43:22.354Z,-2.78
2019-03-13T19:45:55.868Z,-2.70
2019-03-13T19:48:29.250Z,-2.59
2019-03-13T19:51:02.592Z,-2.68
2019-03-13T19:53:37.117Z,-2.44
2019-03-13T19:56:10.404Z,-2.48
2019-03-13T19:58:43.586Z,-2.42
2019-03-13T20:01:17.047Z,-2.45
2019-03-13T20:03:55.069Z,-2.55
2019-03-13T20:06:24.769Z,-2.54
2019-03-13T20:08:58.007Z,-2.43
2019-03-13T20:11:31.339Z,-2.45
2019-03-13T20:14:04.579Z,-2.46
2019-03-13T20:16:37.971Z,-2.42
2019-03-13T20:19:14.781Z,-2.18
2019-03-13T20:21:48.306Z,-1.94
2019-03-13T20:24:21.652Z,-1.94
2019-03-13T20:26:54.969Z,-1.98
2019-03-13T20:29:28.351Z,-1.82
2019-03-13T20:32:01.745Z,-1.99
2019-03-13T20:34:35.040Z,-1.86
2019-03-13T20:37:09.074Z,-1.82
2019-03-13T20:39:42.402Z,-1.81
2019-03-13T20:42:15.618Z,-1.81
2019-03-13T20:44:48.949Z,-1.92
2019-03-13T20:47:22.472Z,-1.75
2019-03-13T20:49:55.884Z,-2.02
2019-03-13T20:52:30.987Z,-1.94
2019-03-13T20:55:04.403Z,-2.04
2019-03-13T20:57:37.709Z,-1.92
2019-03-13T21:00:23.201Z,-2.09
2019-03-13T21:03:00.502Z,-2.09
2019-03-13T21:05:33.785Z,-2.14
2019-03-13T21:08:08.714Z,-2.20
2019-03-13T21:10:42.024Z,-2.14
2019-03-13T21:13:15.368Z,-2.20
2019-03-13T21:15:48.858Z,-2.11
2019-03-13T21:18:22.115Z,-2.16
2019-03-13T21:20:55.422Z,-2.27
2019-03-13T21:23:28.709Z,-2.23
2019-03-13T21:26:01.920Z,-2.23
2019-03-13T21:28:35.203Z,-2.31
2019-03-13T21:31:10.061Z,-2.08
2019-03-13T21:33:43.407Z,-2.16
2019-03-13T21:36:16.712Z,-2.23
2019-03-13T21:38:49.918Z,-2.18
2019-03-13T21:41:24.541Z,-2.30
2019-03-13T21:43:59.153Z,-2.22
2019-03-13T21:46:34.405Z,-2.23
2019-03-13T21:49:08.226Z,-2.24
2019-03-13T21:51:41.873Z,-2.27
2019-03-13T21:54:16.413Z,-2.12
2019-03-13T21:56:50.918Z,-1.97
2019-03-13T21:59:24.263Z,-1.93
2019-03-13T22:01:57.732Z,-1.80
2019-03-13T22:04:33.164Z,-1.84
2019-03-13T22:07:06.502Z,-1.85
2019-03-13T22:09:39.923Z,-1.79
2019-03-13T22:12:13.264Z,-1.71
2019-03-13T22:14:47.869Z,-1.61
2019-03-13T22:17:21.241Z,-1.42
2019-03-13T22:22:31.018Z,-1.51
2019-03-13T22:25:08.778Z,-1.47
2019-03-13T22:27:42.298Z,-1.25
2019-03-13T22:30:28.592Z,-1.18
2019-03-13T22:33:00.140Z,-1.18
2019-03-13T22:35:35.851Z,-0.97
2019-03-13T22:38:09.485Z,-1.01
2019-03-13T22:40:42.759Z,-0.76
2019-03-13T22:43:16.114Z,-0.55
2019-03-13T22:45:49.506Z,-0.44
2019-03-13T22:48:25.449Z,-0.37
2019-03-13T22:51:01.990Z,-0.31
2019-03-13T22:53:33.303Z,-0.28
2019-03-13T22:56:06.714Z,-0.23
2019-03-13T22:58:40.118Z,-0.06
2019-03-13T23:01:18.224Z,-0.14
2019-03-13T23:03:50.952Z,-0.09
2019-03-13T23:06:24.322Z,0.04
2019-03-13T23:08:59.233Z,0.10
2019-03-13T23:11:32.754Z,0.21
2019-03-13T23:14:06.243Z,0.35
2019-03-13T23:16:39.646Z,0.35
2019-03-13T23:19:13.029Z,0.32
2019-03-13T23:21:46.381Z,0.19
2019-03-13T23:24:19.927Z,0.30
2019-03-13T23:26:56.036Z,0.29
2019-03-13T23:29:29.504Z,0.27
2019-03-13T23:32:03.435Z,0.41
2019-03-13T23:34:36.884Z,0.39
2019-03-13T23:37:12.026Z,0.47
2019-03-13T23:39:45.386Z,0.60
2019-03-13T23:42:18.755Z,0.64
2019-03-13T23:44:54.747Z,0.51
2019-03-13T23:47:28.162Z,0.56
2019-03-13T23:50:01.455Z,0.69
2019-03-13T23:52:34.710Z,0.77
2019-03-13T23:55:08.193Z,0.78
2019-03-13T23:57:41.738Z,1.10
